ENGK weather

Gullknapp Flpl Airport
Aust-Agder, Norway

Public forecast

Using degrees Celsius for public forecast. Weather courtesy of forecast.io.

METAR (pilot weather report)

Closest report is Kristiansand Airport, 27.0 nm (49.9 km) SW. Retrieved 2019/05/20 01:20 UTC (0 seconds ago):

ENCN 200120Z AUTO 06005KT 9999 FEW038/// 12/12 Q1011

TAF (pilot weather forecast)

Forecast is more than 12 hours old.

Closest forecast is Kristiansand Airport, 27.0 nm (49.9 km) SW. Retrieved 2016/05/06 12:39 UTC (3 years ago):

TAF TAF ENCN 061100Z 0612/0712 14008KT 9999 FEW040